sensor_id;sensor_type;location;lat;lon;timestamp;P1;durP1;ratioP1;P2;durP2;ratioP2
13991;SDS011;7070;53.586;9.692;2023-08-20T00:01:34;0.30;;;0.30;;
13991;SDS011;7070;53.586;9.692;2023-08-20T00:04:01;0.30;;;0.30;;
13991;SDS011;7070;53.586;9.692;2023-08-20T00:06:29;0.40;;;0.40;;
13991;SDS011;7070;53.586;9.692;2023-08-20T00:08:57;0.30;;;0.30;;
13991;SDS011;7070;53.586;9.692;2023-08-20T00:11:25;0.30;;;0.30;;
13991;SDS011;7070;53.586;9.692;2023-08-20T00:13:52;0.20;;;0.20;;
13991;SDS011;7070;53.586;9.692;2023-08-20T00:16:20;0.30;;;0.30;;
13991;SDS011;7070;53.586;9.692;2023-08-20T00:18:48;0.37;;;0.37;;
13991;SDS011;7070;53.586;9.692;2023-08-20T00:21:15;0.30;;;0.30;;
13991;SDS011;7070;53.586;9.692;2023-08-20T00:23:42;0.30;;;0.30;;
13991;SDS011;7070;53.586;9.692;2023-08-20T00:26:10;0.30;;;0.30;;
13991;SDS011;7070;53.586;9.692;2023-08-20T00:28:37;0.30;;;0.30;;
13991;SDS011;7070;53.586;9.692;2023-08-20T00:31:04;0.30;;;0.30;;
13991;SDS011;7070;53.586;9.692;2023-08-20T00:33:32;0.30;;;0.30;;
13991;SDS011;7070;53.586;9.692;2023-08-20T00:35:59;0.30;;;0.30;;
13991;SDS011;7070;53.586;9.692;2023-08-20T00:38:26;0.30;;;0.30;;
13991;SDS011;7070;53.586;9.692;2023-08-20T00:40:53;0.30;;;0.30;;
13991;SDS011;7070;53.586;9.692;2023-08-20T00:43:19;0.30;;;0.30;;
13991;SDS011;7070;53.586;9.692;2023-08-20T00:45:46;0.30;;;0.30;;
13991;SDS011;7070;53.586;9.692;2023-08-20T00:48:13;0.30;;;0.30;;
13991;SDS011;7070;53.586;9.692;2023-08-20T00:50:43;0.30;;;0.30;;
13991;SDS011;7070;53.586;9.692;2023-08-20T00:53:10;0.30;;;0.30;;
13991;SDS011;7070;53.586;9.692;2023-08-20T00:55:45;0.30;;;0.30;;
13991;SDS011;7070;53.586;9.692;2023-08-20T00:58:12;0.30;;;0.30;;
13991;SDS011;7070;53.586;9.692;2023-08-20T01:00:40;0.30;;;0.30;;
13991;SDS011;7070;53.586;9.692;2023-08-20T01:03:07;0.30;;;0.30;;
13991;SDS011;7070;53.586;9.692;2023-08-20T01:05:36;0.30;;;0.30;;
13991;SDS011;7070;53.586;9.692;2023-08-20T01:08:16;0.30;;;0.30;;
13991;SDS011;7070;53.586;9.692;2023-08-20T01:10:53;0.30;;;0.30;;
13991;SDS011;7070;53.586;9.692;2023-08-20T01:13:25;0.40;;;0.40;;
13991;SDS011;7070;53.586;9.692;2023-08-20T01:15:52;0.30;;;0.30;;
13991;SDS011;7070;53.586;9.692;2023-08-20T01:18:18;0.30;;;0.30;;
13991;SDS011;7070;53.586;9.692;2023-08-20T01:20:47;0.30;;;0.30;;
13991;SDS011;7070;53.586;9.692;2023-08-20T01:23:41;0.30;;;0.30;;
13991;SDS011;7070;53.586;9.692;2023-08-20T01:26:33;0.30;;;0.30;;
13991;SDS011;7070;53.586;9.692;2023-08-20T01:29:10;0.40;;;0.40;;
13991;SDS011;7070;53.586;9.692;2023-08-20T01:31:37;0.40;;;0.40;;
13991;SDS011;7070;53.586;9.692;2023-08-20T01:34:06;0.30;;;0.30;;
13991;SDS011;7070;53.586;9.692;2023-08-20T01:36:32;0.30;;;0.30;;
13991;SDS011;7070;53.586;9.692;2023-08-20T01:38:59;0.37;;;0.37;;
13991;SDS011;7070;53.586;9.692;2023-08-20T01:41:26;0.40;;;0.40;;
13991;SDS011;7070;53.586;9.692;2023-08-20T01:43:53;0.30;;;0.30;;
13991;SDS011;7070;53.586;9.692;2023-08-20T01:46:21;0.40;;;0.40;;
13991;SDS011;7070;53.586;9.692;2023-08-20T01:48:48;0.30;;;0.30;;
13991;SDS011;7070;53.586;9.692;2023-08-20T01:51:15;0.30;;;0.30;;
13991;SDS011;7070;53.586;9.692;2023-08-20T01:53:42;0.37;;;0.37;;
13991;SDS011;7070;53.586;9.692;2023-08-20T01:56:10;0.30;;;0.30;;
13991;SDS011;7070;53.586;9.692;2023-08-20T01:58:38;0.30;;;0.30;;
13991;SDS011;7070;53.586;9.692;2023-08-20T02:01:05;0.33;;;0.33;;
13991;SDS011;7070;53.586;9.692;2023-08-20T02:03:34;0.40;;;0.40;;
13991;SDS011;7070;53.586;9.692;2023-08-20T02:06:02;0.40;;;0.40;;
13991;SDS011;7070;53.586;9.692;2023-08-20T02:08:29;0.30;;;0.30;;
13991;SDS011;7070;53.586;9.692;2023-08-20T02:10:59;0.40;;;0.40;;
13991;SDS011;7070;53.586;9.692;2023-08-20T02:13:27;0.37;;;0.37;;
13991;SDS011;7070;53.586;9.692;2023-08-20T02:15:57;0.30;;;0.30;;
13991;SDS011;7070;53.586;9.692;2023-08-20T02:18:25;0.40;;;0.40;;
13991;SDS011;7070;53.586;9.692;2023-08-20T02:20:53;0.30;;;0.30;;
13991;SDS011;7070;53.586;9.692;2023-08-20T02:23:20;0.30;;;0.30;;
13991;SDS011;7070;53.586;9.692;2023-08-20T02:25:48;0.30;;;0.30;;
13991;SDS011;7070;53.586;9.692;2023-08-20T02:28:15;0.30;;;0.30;;
13991;SDS011;7070;53.586;9.692;2023-08-20T02:30:42;0.33;;;0.33;;
13991;SDS011;7070;53.586;9.692;2023-08-20T02:33:10;0.30;;;0.30;;
13991;SDS011;7070;53.586;9.692;2023-08-20T02:35:37;0.30;;;0.30;;
13991;SDS011;7070;53.586;9.692;2023-08-20T02:38:06;0.30;;;0.30;;
13991;SDS011;7070;53.586;9.692;2023-08-20T02:40:38;0.30;;;0.30;;
13991;SDS011;7070;53.586;9.692;2023-08-20T02:43:06;0.30;;;0.30;;
13991;SDS011;7070;53.586;9.692;2023-08-20T02:45:33;0.20;;;0.20;;
13991;SDS011;7070;53.586;9.692;2023-08-20T02:48:06;0.20;;;0.20;;
13991;SDS011;7070;53.586;9.692;2023-08-20T02:50:33;0.30;;;0.30;;
13991;SDS011;7070;53.586;9.692;2023-08-20T02:52:59;0.20;;;0.20;;
13991;SDS011;7070;53.586;9.692;2023-08-20T02:55:28;0.30;;;0.30;;
13991;SDS011;7070;53.586;9.692;2023-08-20T02:57:55;0.27;;;0.27;;
13991;SDS011;7070;53.586;9.692;2023-08-20T03:00:22;0.20;;;0.20;;
13991;SDS011;7070;53.586;9.692;2023-08-20T03:02:49;0.30;;;0.30;;
13991;SDS011;7070;53.586;9.692;2023-08-20T03:05:16;0.30;;;0.30;;
13991;SDS011;7070;53.586;9.692;2023-08-20T03:07:43;0.30;;;0.30;;
13991;SDS011;7070;53.586;9.692;2023-08-20T03:10:10;0.30;;;0.30;;
13991;SDS011;7070;53.586;9.692;2023-08-20T03:12:38;0.20;;;0.20;;
13991;SDS011;7070;53.586;9.692;2023-08-20T03:15:05;0.30;;;0.30;;
13991;SDS011;7070;53.586;9.692;2023-08-20T03:17:32;0.30;;;0.30;;
13991;SDS011;7070;53.586;9.692;2023-08-20T03:20:00;0.30;;;0.30;;
13991;SDS011;7070;53.586;9.692;2023-08-20T03:22:27;0.30;;;0.30;;
13991;SDS011;7070;53.586;9.692;2023-08-20T03:24:54;0.30;;;0.30;;
13991;SDS011;7070;53.586;9.692;2023-08-20T03:27:21;0.20;;;0.20;;
13991;SDS011;7070;53.586;9.692;2023-08-20T03:29:49;0.30;;;0.30;;
13991;SDS011;7070;53.586;9.692;2023-08-20T03:32:17;0.30;;;0.30;;
13991;SDS011;7070;53.586;9.692;2023-08-20T03:34:44;0.30;;;0.30;;
13991;SDS011;7070;53.586;9.692;2023-08-20T03:37:11;0.30;;;0.30;;
13991;SDS011;7070;53.586;9.692;2023-08-20T03:39:38;0.30;;;0.30;;
13991;SDS011;7070;53.586;9.692;2023-08-20T03:42:05;0.30;;;0.30;;
13991;SDS011;7070;53.586;9.692;2023-08-20T03:44:32;0.30;;;0.30;;
13991;SDS011;7070;53.586;9.692;2023-08-20T03:47:00;0.30;;;0.30;;
13991;SDS011;7070;53.586;9.692;2023-08-20T03:49:27;0.30;;;0.30;;
13991;SDS011;7070;53.586;9.692;2023-08-20T03:51:54;0.20;;;0.20;;
13991;SDS011;7070;53.586;9.692;2023-08-20T03:54:21;0.20;;;0.20;;
13991;SDS011;7070;53.586;9.692;2023-08-20T03:56:48;0.30;;;0.30;;
13991;SDS011;7070;53.586;9.692;2023-08-20T03:59:14;0.23;;;0.23;;
13991;SDS011;7070;53.586;9.692;2023-08-20T04:01:43;0.23;;;0.23;;
13991;SDS011;7070;53.586;9.692;2023-08-20T04:04:11;0.30;;;0.30;;
13991;SDS011;7070;53.586;9.692;2023-08-20T04:06:38;0.20;;;0.20;;
13991;SDS011;7070;53.586;9.692;2023-08-20T04:09:05;0.20;;;0.20;;
13991;SDS011;7070;53.586;9.692;2023-08-20T04:11:34;0.30;;;0.30;;
13991;SDS011;7070;53.586;9.692;2023-08-20T04:14:01;0.27;;;0.27;;
13991;SDS011;7070;53.586;9.692;2023-08-20T04:16:29;0.30;;;0.30;;
13991;SDS011;7070;53.586;9.692;2023-08-20T04:18:56;0.30;;;0.30;;
13991;SDS011;7070;53.586;9.692;2023-08-20T04:21:24;0.20;;;0.20;;
13991;SDS011;7070;53.586;9.692;2023-08-20T04:23:51;0.30;;;0.30;;
13991;SDS011;7070;53.586;9.692;2023-08-20T04:26:18;0.30;;;0.30;;
13991;SDS011;7070;53.586;9.692;2023-08-20T04:28:45;0.30;;;0.30;;
13991;SDS011;7070;53.586;9.692;2023-08-20T04:31:11;0.30;;;0.30;;
13991;SDS011;7070;53.586;9.692;2023-08-20T04:33:38;0.30;;;0.30;;
13991;SDS011;7070;53.586;9.692;2023-08-20T04:36:05;0.30;;;0.30;;
13991;SDS011;7070;53.586;9.692;2023-08-20T04:38:33;0.40;;;0.40;;
13991;SDS011;7070;53.586;9.692;2023-08-20T04:41:00;0.30;;;0.30;;
13991;SDS011;7070;53.586;9.692;2023-08-20T04:43:27;0.37;;;0.37;;
13991;SDS011;7070;53.586;9.692;2023-08-20T04:45:54;0.30;;;0.30;;
13991;SDS011;7070;53.586;9.692;2023-08-20T04:48:21;0.30;;;0.30;;
13991;SDS011;7070;53.586;9.692;2023-08-20T04:50:48;0.30;;;0.30;;
13991;SDS011;7070;53.586;9.692;2023-08-20T04:53:14;0.30;;;0.30;;
13991;SDS011;7070;53.586;9.692;2023-08-20T04:55:43;0.20;;;0.20;;
13991;SDS011;7070;53.586;9.692;2023-08-20T04:58:09;0.27;;;0.27;;
13991;SDS011;7070;53.586;9.692;2023-08-20T05:00:36;0.23;;;0.23;;
13991;SDS011;7070;53.586;9.692;2023-08-20T05:03:03;0.30;;;0.30;;
13991;SDS011;7070;53.586;9.692;2023-08-20T05:05:30;0.30;;;0.30;;
13991;SDS011;7070;53.586;9.692;2023-08-20T05:07:57;0.30;;;0.30;;
13991;SDS011;7070;53.586;9.692;2023-08-20T05:10:24;0.23;;;0.23;;
13991;SDS011;7070;53.586;9.692;2023-08-20T05:12:52;0.30;;;0.30;;
13991;SDS011;7070;53.586;9.692;2023-08-20T05:15:19;0.30;;;0.30;;
13991;SDS011;7070;53.586;9.692;2023-08-20T05:17:46;0.30;;;0.30;;
13991;SDS011;7070;53.586;9.692;2023-08-20T05:20:13;0.30;;;0.30;;
13991;SDS011;7070;53.586;9.692;2023-08-20T05:22:40;0.30;;;0.30;;
13991;SDS011;7070;53.586;9.692;2023-08-20T05:25:08;0.20;;;0.20;;
13991;SDS011;7070;53.586;9.692;2023-08-20T05:27:34;0.20;;;0.20;;
13991;SDS011;7070;53.586;9.692;2023-08-20T05:30:03;0.30;;;0.30;;
13991;SDS011;7070;53.586;9.692;2023-08-20T05:32:31;0.30;;;0.30;;
13991;SDS011;7070;53.586;9.692;2023-08-20T05:34:58;0.30;;;0.30;;
13991;SDS011;7070;53.586;9.692;2023-08-20T05:37:24;0.30;;;0.30;;
13991;SDS011;7070;53.586;9.692;2023-08-20T05:39:51;0.30;;;0.30;;
13991;SDS011;7070;53.586;9.692;2023-08-20T05:42:18;0.30;;;0.30;;
13991;SDS011;7070;53.586;9.692;2023-08-20T05:44:45;0.30;;;0.30;;
13991;SDS011;7070;53.586;9.692;2023-08-20T05:47:13;0.30;;;0.30;;
13991;SDS011;7070;53.586;9.692;2023-08-20T05:49:40;0.23;;;0.23;;
13991;SDS011;7070;53.586;9.692;2023-08-20T05:52:07;0.20;;;0.20;;
13991;SDS011;7070;53.586;9.692;2023-08-20T05:54:34;0.13;;;0.13;;
13991;SDS011;7070;53.586;9.692;2023-08-20T05:57:00;0.20;;;0.20;;
13991;SDS011;7070;53.586;9.692;2023-08-20T05:59:28;0.20;;;0.20;;
13991;SDS011;7070;53.586;9.692;2023-08-20T06:01:55;0.20;;;0.20;;
13991;SDS011;7070;53.586;9.692;2023-08-20T06:04:23;0.20;;;0.20;;
13991;SDS011;7070;53.586;9.692;2023-08-20T06:06:50;0.20;;;0.20;;
13991;SDS011;7070;53.586;9.692;2023-08-20T06:09:17;0.20;;;0.20;;
13991;SDS011;7070;53.586;9.692;2023-08-20T06:11:43;0.20;;;0.20;;
13991;SDS011;7070;53.586;9.692;2023-08-20T06:14:10;0.20;;;0.20;;
13991;SDS011;7070;53.586;9.692;2023-08-20T06:16:37;0.23;;;0.23;;
13991;SDS011;7070;53.586;9.692;2023-08-20T06:19:04;0.20;;;0.20;;
13991;SDS011;7070;53.586;9.692;2023-08-20T06:21:32;0.20;;;0.20;;
13991;SDS011;7070;53.586;9.692;2023-08-20T06:23:59;0.20;;;0.20;;
13991;SDS011;7070;53.586;9.692;2023-08-20T06:26:27;0.20;;;0.20;;
13991;SDS011;7070;53.586;9.692;2023-08-20T06:28:54;0.20;;;0.20;;
13991;SDS011;7070;53.586;9.692;2023-08-20T06:31:20;0.20;;;0.20;;
13991;SDS011;7070;53.586;9.692;2023-08-20T06:33:48;0.23;;;0.23;;
13991;SDS011;7070;53.586;9.692;2023-08-20T06:36:15;0.20;;;0.20;;
13991;SDS011;7070;53.586;9.692;2023-08-20T06:38:43;0.20;;;0.20;;
13991;SDS011;7070;53.586;9.692;2023-08-20T06:41:10;0.10;;;0.10;;
13991;SDS011;7070;53.586;9.692;2023-08-20T06:43:37;0.20;;;0.20;;
13991;SDS011;7070;53.586;9.692;2023-08-20T06:46:03;0.20;;;0.20;;
13991;SDS011;7070;53.586;9.692;2023-08-20T06:48:30;0.20;;;0.20;;
13991;SDS011;7070;53.586;9.692;2023-08-20T06:50:57;0.20;;;0.20;;
13991;SDS011;7070;53.586;9.692;2023-08-20T06:53:24;0.20;;;0.20;;
13991;SDS011;7070;53.586;9.692;2023-08-20T06:55:52;0.30;;;0.30;;
13991;SDS011;7070;53.586;9.692;2023-08-20T06:58:19;0.20;;;0.20;;
13991;SDS011;7070;53.586;9.692;2023-08-20T07:00:46;0.20;;;0.20;;
13991;SDS011;7070;53.586;9.692;2023-08-20T07:03:13;0.20;;;0.20;;
13991;SDS011;7070;53.586;9.692;2023-08-20T07:05:39;0.20;;;0.20;;
13991;SDS011;7070;53.586;9.692;2023-08-20T07:08:06;0.20;;;0.20;;
13991;SDS011;7070;53.586;9.692;2023-08-20T07:10:33;0.20;;;0.20;;
13991;SDS011;7070;53.586;9.692;2023-08-20T07:13:01;0.20;;;0.20;;
13991;SDS011;7070;53.586;9.692;2023-08-20T07:15:29;0.20;;;0.20;;
13991;SDS011;7070;53.586;9.692;2023-08-20T07:17:55;0.20;;;0.20;;
13991;SDS011;7070;53.586;9.692;2023-08-20T07:20:22;0.20;;;0.20;;
13991;SDS011;7070;53.586;9.692;2023-08-20T07:22:49;0.10;;;0.10;;
13991;SDS011;7070;53.586;9.692;2023-08-20T07:25:16;0.20;;;0.20;;
13991;SDS011;7070;53.586;9.692;2023-08-20T07:27:43;0.20;;;0.20;;
13991;SDS011;7070;53.586;9.692;2023-08-20T07:30:11;0.20;;;0.20;;
13991;SDS011;7070;53.586;9.692;2023-08-20T07:32:38;0.30;;;0.30;;
13991;SDS011;7070;53.586;9.692;2023-08-20T07:35:05;0.20;;;0.20;;
13991;SDS011;7070;53.586;9.692;2023-08-20T07:37:33;0.20;;;0.20;;
13991;SDS011;7070;53.586;9.692;2023-08-20T07:40:00;0.20;;;0.20;;
13991;SDS011;7070;53.586;9.692;2023-08-20T07:42:27;0.10;;;0.10;;
13991;SDS011;7070;53.586;9.692;2023-08-20T07:44:54;0.20;;;0.20;;
13991;SDS011;7070;53.586;9.692;2023-08-20T07:47:22;0.20;;;0.20;;
13991;SDS011;7070;53.586;9.692;2023-08-20T07:49:49;0.20;;;0.20;;
13991;SDS011;7070;53.586;9.692;2023-08-20T07:52:16;0.20;;;0.20;;
13991;SDS011;7070;53.586;9.692;2023-08-20T07:54:42;0.20;;;0.20;;
13991;SDS011;7070;53.586;9.692;2023-08-20T07:57:09;0.20;;;0.20;;
13991;SDS011;7070;53.586;9.692;2023-08-20T07:59:37;0.20;;;0.20;;
13991;SDS011;7070;53.586;9.692;2023-08-20T08:02:03;0.10;;;0.10;;
13991;SDS011;7070;53.586;9.692;2023-08-20T08:04:33;0.20;;;0.20;;
13991;SDS011;7070;53.586;9.692;2023-08-20T08:07:00;0.20;;;0.20;;
13991;SDS011;7070;53.586;9.692;2023-08-20T08:09:27;0.20;;;0.20;;
13991;SDS011;7070;53.586;9.692;2023-08-20T08:11:54;0.10;;;0.10;;
13991;SDS011;7070;53.586;9.692;2023-08-20T08:14:22;0.20;;;0.20;;
13991;SDS011;7070;53.586;9.692;2023-08-20T08:16:49;0.23;;;0.23;;
13991;SDS011;7070;53.586;9.692;2023-08-20T08:19:16;0.20;;;0.20;;
13991;SDS011;7070;53.586;9.692;2023-08-20T08:21:45;0.20;;;0.20;;
13991;SDS011;7070;53.586;9.692;2023-08-20T08:24:12;0.10;;;0.10;;
13991;SDS011;7070;53.586;9.692;2023-08-20T08:26:39;0.30;;;0.30;;
13991;SDS011;7070;53.586;9.692;2023-08-20T08:29:07;0.20;;;0.20;;
13991;SDS011;7070;53.586;9.692;2023-08-20T08:31:34;0.20;;;0.20;;
13991;SDS011;7070;53.586;9.692;2023-08-20T08:34:01;0.23;;;0.23;;
13991;SDS011;7070;53.586;9.692;2023-08-20T08:36:29;0.17;;;0.17;;
13991;SDS011;7070;53.586;9.692;2023-08-20T08:38:57;0.13;;;0.13;;
13991;SDS011;7070;53.586;9.692;2023-08-20T08:41:24;0.20;;;0.20;;
13991;SDS011;7070;53.586;9.692;2023-08-20T08:43:53;0.20;;;0.20;;
13991;SDS011;7070;53.586;9.692;2023-08-20T08:46:21;0.20;;;0.20;;
13991;SDS011;7070;53.586;9.692;2023-08-20T08:48:50;0.10;;;0.10;;
13991;SDS011;7070;53.586;9.692;2023-08-20T08:51:18;0.20;;;0.20;;
13991;SDS011;7070;53.586;9.692;2023-08-20T08:53:45;0.20;;;0.20;;
13991;SDS011;7070;53.586;9.692;2023-08-20T08:56:14;0.17;;;0.17;;
13991;SDS011;7070;53.586;9.692;2023-08-20T08:58:41;0.13;;;0.13;;
13991;SDS011;7070;53.586;9.692;2023-08-20T09:01:08;0.10;;;0.10;;
13991;SDS011;7070;53.586;9.692;2023-08-20T09:03:34;0.20;;;0.20;;
13991;SDS011;7070;53.586;9.692;2023-08-20T09:06:01;0.17;;;0.17;;
13991;SDS011;7070;53.586;9.692;2023-08-20T09:08:34;0.13;;;0.13;;
13991;SDS011;7070;53.586;9.692;2023-08-20T09:11:01;0.20;;;0.20;;
13991;SDS011;7070;53.586;9.692;2023-08-20T09:13:34;0.20;;;0.20;;
13991;SDS011;7070;53.586;9.692;2023-08-20T09:16:05;0.20;;;0.20;;
13991;SDS011;7070;53.586;9.692;2023-08-20T09:18:33;0.20;;;0.20;;
13991;SDS011;7070;53.586;9.692;2023-08-20T09:21:05;0.20;;;0.20;;
13991;SDS011;7070;53.586;9.692;2023-08-20T09:23:33;0.20;;;0.20;;
13991;SDS011;7070;53.586;9.692;2023-08-20T09:26:01;0.30;;;0.30;;
13991;SDS011;7070;53.586;9.692;2023-08-20T09:28:28;0.20;;;0.20;;
13991;SDS011;7070;53.586;9.692;2023-08-20T09:30:58;0.20;;;0.20;;
13991;SDS011;7070;53.586;9.692;2023-08-20T09:33:27;0.20;;;0.20;;
13991;SDS011;7070;53.586;9.692;2023-08-20T09:35:56;0.10;;;0.10;;
13991;SDS011;7070;53.586;9.692;2023-08-20T09:38:23;0.10;;;0.10;;
13991;SDS011;7070;53.586;9.692;2023-08-20T09:40:51;0.10;;;0.10;;
13991;SDS011;7070;53.586;9.692;2023-08-20T09:43:21;0.20;;;0.20;;
13991;SDS011;7070;53.586;9.692;2023-08-20T09:45:51;0.20;;;0.20;;
13991;SDS011;7070;53.586;9.692;2023-08-20T09:48:22;0.10;;;0.10;;
13991;SDS011;7070;53.586;9.692;2023-08-20T09:50:51;0.10;;;0.10;;
13991;SDS011;7070;53.586;9.692;2023-08-20T09:53:25;0.17;;;0.17;;
13991;SDS011;7070;53.586;9.692;2023-08-20T09:55:54;0.20;;;0.20;;
13991;SDS011;7070;53.586;9.692;2023-08-20T09:58:27;0.20;;;0.20;;
13991;SDS011;7070;53.586;9.692;2023-08-20T10:00:55;0.20;;;0.20;;
13991;SDS011;7070;53.586;9.692;2023-08-20T10:03:24;0.20;;;0.20;;
13991;SDS011;7070;53.586;9.692;2023-08-20T10:05:51;0.20;;;0.20;;
13991;SDS011;7070;53.586;9.692;2023-08-20T10:08:18;0.10;;;0.10;;
13991;SDS011;7070;53.586;9.692;2023-08-20T10:10:46;0.20;;;0.20;;
13991;SDS011;7070;53.586;9.692;2023-08-20T10:13:13;0.20;;;0.20;;
13991;SDS011;7070;53.586;9.692;2023-08-20T10:15:40;0.13;;;0.13;;
13991;SDS011;7070;53.586;9.692;2023-08-20T10:18:08;0.10;;;0.10;;
13991;SDS011;7070;53.586;9.692;2023-08-20T10:20:37;0.20;;;0.20;;
13991;SDS011;7070;53.586;9.692;2023-08-20T10:23:05;0.20;;;0.20;;
13991;SDS011;7070;53.586;9.692;2023-08-20T10:25:32;0.20;;;0.20;;
13991;SDS011;7070;53.586;9.692;2023-08-20T10:28:13;0.20;;;0.20;;
13991;SDS011;7070;53.586;9.692;2023-08-20T10:31:04;0.17;;;0.17;;
13991;SDS011;7070;53.586;9.692;2023-08-20T10:33:34;0.20;;;0.20;;
13991;SDS011;7070;53.586;9.692;2023-08-20T10:36:15;0.20;;;0.20;;
13991;SDS011;7070;53.586;9.692;2023-08-20T10:38:44;0.13;;;0.13;;
13991;SDS011;7070;53.586;9.692;2023-08-20T10:41:12;0.17;;;0.17;;
13991;SDS011;7070;53.586;9.692;2023-08-20T10:43:46;0.10;;;0.10;;
13991;SDS011;7070;53.586;9.692;2023-08-20T10:46:14;0.20;;;0.20;;
13991;SDS011;7070;53.586;9.692;2023-08-20T10:48:43;0.20;;;0.20;;
13991;SDS011;7070;53.586;9.692;2023-08-20T10:51:15;0.20;;;0.20;;
13991;SDS011;7070;53.586;9.692;2023-08-20T10:53:43;0.10;;;0.10;;
13991;SDS011;7070;53.586;9.692;2023-08-20T10:56:37;0.20;;;0.20;;
13991;SDS011;7070;53.586;9.692;2023-08-20T10:59:05;0.20;;;0.20;;
13991;SDS011;7070;53.586;9.692;2023-08-20T11:01:33;0.10;;;0.10;;
13991;SDS011;7070;53.586;9.692;2023-08-20T11:04:01;0.10;;;0.10;;
13991;SDS011;7070;53.586;9.692;2023-08-20T11:06:33;0.28;;;0.28;;
13991;SDS011;7070;53.586;9.692;2023-08-20T11:09:00;0.20;;;0.20;;
13991;SDS011;7070;53.586;9.692;2023-08-20T11:11:30;0.20;;;0.20;;
13991;SDS011;7070;53.586;9.692;2023-08-20T11:14:03;0.20;;;0.20;;
13991;SDS011;7070;53.586;9.692;2023-08-20T11:16:31;0.20;;;0.20;;
13991;SDS011;7070;53.586;9.692;2023-08-20T11:18:59;0.20;;;0.20;;
13991;SDS011;7070;53.586;9.692;2023-08-20T11:21:25;0.20;;;0.20;;
13991;SDS011;7070;53.586;9.692;2023-08-20T11:23:56;0.10;;;0.10;;
13991;SDS011;7070;53.586;9.692;2023-08-20T11:26:23;0.20;;;0.20;;
13991;SDS011;7070;53.586;9.692;2023-08-20T11:28:50;0.10;;;0.10;;
13991;SDS011;7070;53.586;9.692;2023-08-20T11:31:17;0.10;;;0.10;;
13991;SDS011;7070;53.586;9.692;2023-08-20T11:33:44;0.10;;;0.10;;
13991;SDS011;7070;53.586;9.692;2023-08-20T11:36:12;0.10;;;0.10;;
13991;SDS011;7070;53.586;9.692;2023-08-20T11:38:41;0.10;;;0.10;;
13991;SDS011;7070;53.586;9.692;2023-08-20T11:41:09;0.20;;;0.20;;
13991;SDS011;7070;53.586;9.692;2023-08-20T11:43:36;0.10;;;0.10;;
13991;SDS011;7070;53.586;9.692;2023-08-20T11:46:03;0.10;;;0.10;;
13991;SDS011;7070;53.586;9.692;2023-08-20T11:48:30;0.10;;;0.10;;
13991;SDS011;7070;53.586;9.692;2023-08-20T11:50:57;0.10;;;0.10;;
13991;SDS011;7070;53.586;9.692;2023-08-20T11:53:24;0.10;;;0.10;;
13991;SDS011;7070;53.586;9.692;2023-08-20T11:55:54;0.10;;;0.10;;
13991;SDS011;7070;53.586;9.692;2023-08-20T11:58:22;0.20;;;0.20;;
13991;SDS011;7070;53.586;9.692;2023-08-20T12:00:49;0.20;;;0.20;;
13991;SDS011;7070;53.586;9.692;2023-08-20T12:03:17;0.20;;;0.20;;
13991;SDS011;7070;53.586;9.692;2023-08-20T12:05:45;0.20;;;0.20;;
13991;SDS011;7070;53.586;9.692;2023-08-20T12:08:14;0.17;;;0.17;;
13991;SDS011;7070;53.586;9.692;2023-08-20T12:10:42;0.10;;;0.10;;
13991;SDS011;7070;53.586;9.692;2023-08-20T12:13:09;0.10;;;0.10;;
13991;SDS011;7070;53.586;9.692;2023-08-20T12:15:37;0.10;;;0.10;;
13991;SDS011;7070;53.586;9.692;2023-08-20T12:18:05;0.13;;;0.13;;
13991;SDS011;7070;53.586;9.692;2023-08-20T12:20:34;0.10;;;0.10;;
13991;SDS011;7070;53.586;9.692;2023-08-20T12:23:02;0.10;;;0.10;;
13991;SDS011;7070;53.586;9.692;2023-08-20T12:25:31;0.20;;;0.20;;
13991;SDS011;7070;53.586;9.692;2023-08-20T12:27:59;0.10;;;0.10;;
13991;SDS011;7070;53.586;9.692;2023-08-20T12:30:26;0.10;;;0.10;;
13991;SDS011;7070;53.586;9.692;2023-08-20T12:32:54;0.10;;;0.10;;
13991;SDS011;7070;53.586;9.692;2023-08-20T12:35:21;0.20;;;0.20;;
13991;SDS011;7070;53.586;9.692;2023-08-20T12:37:48;0.10;;;0.10;;
13991;SDS011;7070;53.586;9.692;2023-08-20T12:40:15;0.20;;;0.20;;
13991;SDS011;7070;53.586;9.692;2023-08-20T12:42:43;0.20;;;0.20;;
13991;SDS011;7070;53.586;9.692;2023-08-20T12:45:10;0.10;;;0.10;;
13991;SDS011;7070;53.586;9.692;2023-08-20T12:47:38;0.10;;;0.10;;
13991;SDS011;7070;53.586;9.692;2023-08-20T12:50:07;0.10;;;0.10;;
13991;SDS011;7070;53.586;9.692;2023-08-20T12:52:35;0.10;;;0.10;;
13991;SDS011;7070;53.586;9.692;2023-08-20T12:55:02;0.13;;;0.13;;
13991;SDS011;7070;53.586;9.692;2023-08-20T12:57:29;0.20;;;0.20;;
13991;SDS011;7070;53.586;9.692;2023-08-20T12:59:56;0.17;;;0.17;;
13991;SDS011;7070;53.586;9.692;2023-08-20T13:02:24;0.20;;;0.20;;
13991;SDS011;7070;53.586;9.692;2023-08-20T13:04:51;0.20;;;0.20;;
13991;SDS011;7070;53.586;9.692;2023-08-20T13:07:20;0.10;;;0.10;;
13991;SDS011;7070;53.586;9.692;2023-08-20T13:09:48;0.10;;;0.10;;
13991;SDS011;7070;53.586;9.692;2023-08-20T13:12:15;0.10;;;0.10;;
13991;SDS011;7070;53.586;9.692;2023-08-20T13:14:44;0.20;;;0.20;;
13991;SDS011;7070;53.586;9.692;2023-08-20T13:17:12;0.10;;;0.10;;
13991;SDS011;7070;53.586;9.692;2023-08-20T13:19:39;0.20;;;0.20;;
13991;SDS011;7070;53.586;9.692;2023-08-20T13:22:06;0.20;;;0.20;;
13991;SDS011;7070;53.586;9.692;2023-08-20T13:24:34;0.10;;;0.10;;
13991;SDS011;7070;53.586;9.692;2023-08-20T13:27:01;0.20;;;0.20;;
13991;SDS011;7070;53.586;9.692;2023-08-20T13:29:28;0.10;;;0.10;;
13991;SDS011;7070;53.586;9.692;2023-08-20T13:31:55;0.10;;;0.10;;
13991;SDS011;7070;53.586;9.692;2023-08-20T13:34:21;0.10;;;0.10;;
13991;SDS011;7070;53.586;9.692;2023-08-20T13:36:48;0.10;;;0.10;;
13991;SDS011;7070;53.586;9.692;2023-08-20T13:39:15;0.10;;;0.10;;
13991;SDS011;7070;53.586;9.692;2023-08-20T13:41:45;0.10;;;0.10;;
13991;SDS011;7070;53.586;9.692;2023-08-20T13:44:12;0.10;;;0.10;;
13991;SDS011;7070;53.586;9.692;2023-08-20T13:46:39;0.20;;;0.20;;
13991;SDS011;7070;53.586;9.692;2023-08-20T13:49:06;0.20;;;0.20;;
13991;SDS011;7070;53.586;9.692;2023-08-20T13:51:33;0.10;;;0.10;;
13991;SDS011;7070;53.586;9.692;2023-08-20T13:54:00;0.17;;;0.17;;
13991;SDS011;7070;53.586;9.692;2023-08-20T13:56:27;0.15;;;0.15;;
13991;SDS011;7070;53.586;9.692;2023-08-20T13:58:55;0.15;;;0.15;;
13991;SDS011;7070;53.586;9.692;2023-08-20T14:01:22;0.10;;;0.10;;
13991;SDS011;7070;53.586;9.692;2023-08-20T14:03:48;0.20;;;0.20;;
13991;SDS011;7070;53.586;9.692;2023-08-20T14:06:15;0.20;;;0.20;;
13991;SDS011;7070;53.586;9.692;2023-08-20T14:08:42;0.20;;;0.20;;
13991;SDS011;7070;53.586;9.692;2023-08-20T14:11:09;0.10;;;0.10;;
13991;SDS011;7070;53.586;9.692;2023-08-20T14:13:36;0.20;;;0.20;;
13991;SDS011;7070;53.586;9.692;2023-08-20T14:16:05;0.10;;;0.10;;
13991;SDS011;7070;53.586;9.692;2023-08-20T14:18:32;0.10;;;0.10;;
13991;SDS011;7070;53.586;9.692;2023-08-20T14:20:58;0.10;;;0.10;;
13991;SDS011;7070;53.586;9.692;2023-08-20T14:23:25;0.20;;;0.20;;
13991;SDS011;7070;53.586;9.692;2023-08-20T14:25:53;0.20;;;0.20;;
13991;SDS011;7070;53.586;9.692;2023-08-20T14:28:20;0.13;;;0.13;;
13991;SDS011;7070;53.586;9.692;2023-08-20T14:30:47;0.10;;;0.10;;
13991;SDS011;7070;53.586;9.692;2023-08-20T14:33:17;0.20;;;0.20;;
13991;SDS011;7070;53.586;9.692;2023-08-20T14:35:44;0.10;;;0.10;;
13991;SDS011;7070;53.586;9.692;2023-08-20T14:38:11;0.10;;;0.10;;
13991;SDS011;7070;53.586;9.692;2023-08-20T14:40:38;0.10;;;0.10;;
13991;SDS011;7070;53.586;9.692;2023-08-20T14:43:06;0.10;;;0.10;;
13991;SDS011;7070;53.586;9.692;2023-08-20T14:45:33;0.10;;;0.10;;
13991;SDS011;7070;53.586;9.692;2023-08-20T14:48:00;0.20;;;0.20;;
13991;SDS011;7070;53.586;9.692;2023-08-20T14:50:29;0.10;;;0.10;;
13991;SDS011;7070;53.586;9.692;2023-08-20T14:52:56;0.10;;;0.10;;
13991;SDS011;7070;53.586;9.692;2023-08-20T14:55:23;0.20;;;0.20;;
13991;SDS011;7070;53.586;9.692;2023-08-20T14:57:56;0.10;;;0.10;;
13991;SDS011;7070;53.586;9.692;2023-08-20T15:00:22;0.10;;;0.10;;
13991;SDS011;7070;53.586;9.692;2023-08-20T15:02:55;0.10;;;0.10;;
13991;SDS011;7070;53.586;9.692;2023-08-20T15:05:21;0.10;;;0.10;;